Terminal Aerodrome Forecast
Issued by NWS Memphis, TN

Home | Current Version | Previous Version | Text Only | Print | Product List | Glossary On
Versions: 1 2 3 4 5 6 7 8 9 10 11 12 13 14 15 16 17 18 19
000
FTUS44 KMEG 252340
TAFMKL
TAF
KMKL 252340Z 2600/2624 17007KT P6SM FEW250
     FM260900 18010KT P6SM SCT250
     FM261200 18010G16KT P6SM BKN015
     FM261600 18012G18KT P6SM BKN025
     FM261900 18014G20KT P6SM SCT040=

USA.gov is the U.S. government's official web portal to all federal, state and local government web resources and services.